Hhl Amur — D5CV2 — position and weather

sailwx.info

Track history (hours):
 
Tides and Currents Weather Stations Pressure Air Temp Water Temp Dewpoint Dewpoint Depression Visibility Wind Speed Wind Dir Waves Ship Positions

Hhl Amur

Last reported at 2018-Jun-13 17:18 UTC. Time now 2018-Jun-21 02:50 UTC.
Position S 03°20' W 060°05'.

Length 138 m; draft 6.8 m.

Type: Ship. MMSI: 636092457.

Date/timePositionNaut miles runAvg speedWind from/ knotsBaromVisibWave heightAir tempDewpointWater temp
2018-Jun-13 17:18S 03°20' W 060°05'310.2
2018-Jun-13 17:00S 03°19' W 060°02'510.4
2018-Jun-13 16:30S 03°14' W 059°59'510.1
2018-Jun-13 16:00S 03°12' W 059°55'5 9.4
2018-Jun-13 15:30S 03°08' W 059°54'1 2.6
2018-Jun-13 14:57S 03°08' W 059°55'0 0.0
2018-Jun-13 14:30S 03°08' W 059°55'0 0.0
2018-Jun-13 13:48S 03°08' W 059°55'0 0.0
2018-Jun-13 13:21S 03°08' W 059°55'0 0.0
2018-Jun-13 12:57S 03°08' W 059°55'89 7.3
2018-Jun-13 00:49S 03°10' W 058°26'2 6.7
2018-Jun-13 00:30S 03°10' W 058°24'5 9.9
2018-Jun-13 00:00S 03°12' W 058°19'5 9.4
2018-Jun-12 23:30S 03°13' W 058°15'  
2018-Jun-10 17:11S 00°25' W 051°25'618.9
2018-Jun-10 16:52S 00°19' W 051°21'3 9.3
2018-Jun-10 16:30S 00°16' W 051°20'714.2
2018-Jun-10 16:00S 00°11' W 051°16'714.1
2018-Jun-10 15:30S 00°07' W 051°10'4 7.5
2018-Jun-10 14:56S 00°04' W 051°07'0 0.0
2018-Jun-10 14:26S 00°04' W 051°07'0 0.0
2018-Jun-10 13:26S 00°04' W 051°07'0 0.3
2018-Jun-10 12:56S 00°04' W 051°07'0 0.1
2018-Jun-10 12:26S 00°04' W 051°07'0 0.0
2018-Jun-10 11:56S 00°04' W 051°07'0 0.0
2018-Jun-10 11:26S 00°04' W 051°07'0 0.0
2018-Jun-10 10:56S 00°04' W 051°07'0 0.1
2018-Jun-10 10:20S 00°04' W 051°07'1 1.6
2018-Jun-10 10:00S 00°04' W 051°06'510.1
2018-Jun-10 09:30S 00°01' W 051°02'5 9.3
2018-Jun-10 08:59N 00°03' W 050°59'0 0.1
2018-Jun-10 08:13N 00°03' W 050°59'0 0.0
2018-Jun-10 07:55N 00°03' W 050°59'0 0.0
2018-Jun-10 07:25N 00°03' W 050°59'0 0.0
2018-Jun-10 06:55N 00°03' W 050°59'0 0.0
2018-Jun-10 06:19N 00°03' W 050°59'0 0.0
2018-Jun-10 05:55N 00°03' W 050°59'0 0.2
2018-Jun-10 05:07N 00°02' W 050°59'0 0.4
2018-Jun-10 04:55N 00°02' W 050°59'0 0.1
2018-Jun-10 04:23N 00°02' W 050°59'0 0.0
2018-Jun-10 03:55N 00°02' W 050°59'0 0.0
2018-Jun-10 03:25N 00°02' W 050°59'0 0.0
2018-Jun-10 02:55N 00°02' W 050°59'0 0.4
2018-Jun-10 02:30N 00°03' W 050°59'5 9.2
2018-Jun-10 02:00N 00°07' W 050°58'713.1
2018-Jun-10 01:30N 00°10' W 050°52'  
Track history (hours):
 
Tides and Currents Weather Stations Pressure Air Temp Water Temp Dewpoint Dewpoint Depression Visibility Wind Speed Wind Dir Waves Ship Positions

Hhl Amur

Last reported at 2018-Jun-13 17:18 UTC. Time now 2018-Jun-21 02:50 UTC.
Position S 03°20' W 060°05'.

Length 138 m; draft 6.8 m.

Type: Ship. MMSI: 636092457.

Date/timePositionNaut miles runAvg speedWind from/ knotsBaromVisibWave heightAir tempDewpointWater temp
2018-Jun-13 17:18S 03°20' W 060°05'310.2
2018-Jun-13 17:00S 03°19' W 060°02'510.4
2018-Jun-13 16:30S 03°14' W 059°59'510.1
2018-Jun-13 16:00S 03°12' W 059°55'5 9.4
2018-Jun-13 15:30S 03°08' W 059°54'1 2.6
2018-Jun-13 14:57S 03°08' W 059°55'0 0.0
2018-Jun-13 14:30S 03°08' W 059°55'0 0.0
2018-Jun-13 13:48S 03°08' W 059°55'0 0.0
2018-Jun-13 13:21S 03°08' W 059°55'0 0.0
2018-Jun-13 12:57S 03°08' W 059°55'89 7.3
2018-Jun-13 00:49S 03°10' W 058°26'2 6.7
2018-Jun-13 00:30S 03°10' W 058°24'5 9.9
2018-Jun-13 00:00S 03°12' W 058°19'5 9.4
2018-Jun-12 23:30S 03°13' W 058°15'  
2018-Jun-10 17:11S 00°25' W 051°25'618.9
2018-Jun-10 16:52S 00°19' W 051°21'3 9.3
2018-Jun-10 16:30S 00°16' W 051°20'714.2
2018-Jun-10 16:00S 00°11' W 051°16'714.1
2018-Jun-10 15:30S 00°07' W 051°10'4 7.5
2018-Jun-10 14:56S 00°04' W 051°07'0 0.0
2018-Jun-10 14:26S 00°04' W 051°07'0 0.0
2018-Jun-10 13:26S 00°04' W 051°07'0 0.3
2018-Jun-10 12:56S 00°04' W 051°07'0 0.1
2018-Jun-10 12:26S 00°04' W 051°07'0 0.0
2018-Jun-10 11:56S 00°04' W 051°07'0 0.0
2018-Jun-10 11:26S 00°04' W 051°07'0 0.0
2018-Jun-10 10:56S 00°04' W 051°07'0 0.1
2018-Jun-10 10:20S 00°04' W 051°07'1 1.6
2018-Jun-10 10:00S 00°04' W 051°06'510.1
2018-Jun-10 09:30S 00°01' W 051°02'5 9.3
2018-Jun-10 08:59N 00°03' W 050°59'0 0.1
2018-Jun-10 08:13N 00°03' W 050°59'0 0.0
2018-Jun-10 07:55N 00°03' W 050°59'0 0.0
2018-Jun-10 07:25N 00°03' W 050°59'0 0.0
2018-Jun-10 06:55N 00°03' W 050°59'0 0.0
2018-Jun-10 06:19N 00°03' W 050°59'0 0.0
2018-Jun-10 05:55N 00°03' W 050°59'0 0.2
2018-Jun-10 05:07N 00°02' W 050°59'0 0.4
2018-Jun-10 04:55N 00°02' W 050°59'0 0.1
2018-Jun-10 04:23N 00°02' W 050°59'0 0.0
2018-Jun-10 03:55N 00°02' W 050°59'0 0.0
2018-Jun-10 03:25N 00°02' W 050°59'0 0.0
2018-Jun-10 02:55N 00°02' W 050°59'0 0.4
2018-Jun-10 02:30N 00°03' W 050°59'5 9.2
2018-Jun-10 02:00N 00°07' W 050°58'713.1
2018-Jun-10 01:30N 00°10' W 050°52'  

Dump ship's entire track history